createdAt,value
2019-05-10T00:00:11.698Z,3.20
2019-05-10T00:02:58.806Z,2.97
2019-05-10T00:05:46.361Z,3.60
2019-05-10T00:08:32.810Z,3.43
2019-05-10T00:11:26.852Z,2.53
2019-05-10T00:14:02.055Z,3.10
2019-05-10T00:16:30.454Z,2.73
2019-05-10T00:18:58.872Z,2.87
2019-05-10T00:21:27.538Z,2.50
2019-05-10T00:23:55.978Z,2.70
2019-05-10T00:26:24.461Z,2.60
2019-05-10T00:28:52.945Z,2.87
2019-05-10T00:31:21.391Z,2.80
2019-05-10T00:33:49.809Z,2.73
2019-05-10T00:36:18.481Z,2.87
2019-05-10T00:38:46.913Z,2.60
2019-05-10T00:41:15.366Z,2.50
2019-05-10T00:43:44.082Z,2.63
2019-05-10T00:46:12.454Z,2.90
2019-05-10T00:48:40.868Z,2.57
2019-05-10T00:51:09.424Z,2.77
2019-05-10T00:53:37.854Z,2.50
2019-05-10T00:56:06.329Z,2.70
2019-05-10T00:58:34.874Z,2.60
2019-05-10T01:01:03.303Z,2.37
2019-05-10T01:03:31.773Z,2.83
2019-05-10T01:06:00.211Z,2.63
2019-05-10T01:08:28.601Z,2.63
2019-05-10T01:10:57.056Z,2.70
2019-05-10T01:13:25.590Z,2.70
2019-05-10T01:15:54.004Z,2.90
2019-05-10T01:18:22.425Z,2.83
2019-05-10T01:20:50.878Z,2.80
2019-05-10T01:23:19.273Z,2.60
2019-05-10T01:25:47.670Z,2.30
2019-05-10T01:28:16.339Z,2.40
2019-05-10T01:30:44.815Z,3.40
2019-05-10T01:33:13.233Z,2.87
2019-05-10T01:35:41.648Z,2.87
2019-05-10T01:38:11.053Z,3.10
2019-05-10T01:40:39.449Z,2.60
2019-05-10T01:43:07.886Z,2.60
2019-05-10T01:45:36.296Z,2.70
2019-05-10T01:48:04.698Z,2.60
2019-05-10T01:50:33.233Z,3.17
2019-05-10T01:53:01.625Z,3.20
2019-05-10T01:55:30.055Z,3.20
2019-05-10T01:57:58.456Z,3.00
2019-05-10T02:00:27.858Z,2.90
2019-05-10T02:02:56.283Z,3.30
2019-05-10T02:05:24.711Z,3.00
2019-05-10T02:07:53.116Z,3.17
2019-05-10T02:10:21.513Z,3.30
2019-05-10T02:12:49.941Z,2.90
2019-05-10T02:15:18.489Z,2.90
2019-05-10T02:17:46.879Z,3.43
2019-05-10T02:20:15.523Z,3.27
2019-05-10T02:22:43.915Z,2.83
2019-05-10T02:25:12.417Z,3.10
2019-05-10T02:27:40.928Z,3.57
2019-05-10T02:30:09.647Z,2.80
2019-05-10T02:32:38.096Z,2.83
2019-05-10T02:35:07.193Z,3.23
2019-05-10T02:37:35.585Z,3.23
2019-05-10T02:40:05.433Z,3.07
2019-05-10T02:42:34.176Z,3.30
2019-05-10T02:45:02.693Z,3.50
2019-05-10T02:47:31.253Z,3.47
2019-05-10T02:50:01.107Z,3.87
2019-05-10T02:52:30.088Z,3.80
2019-05-10T02:54:59.201Z,3.20
2019-05-10T02:57:27.761Z,2.83
2019-05-10T02:59:58.012Z,3.33
2019-05-10T03:02:27.142Z,3.03
2019-05-10T03:04:57.944Z,3.17
2019-05-10T03:07:26.364Z,3.00
2019-05-10T03:09:54.904Z,3.10
2019-05-10T03:12:25.292Z,3.23
2019-05-10T03:14:55.801Z,2.83
2019-05-10T03:17:25.495Z,3.33
2019-05-10T03:19:54.430Z,3.47
2019-05-10T03:22:25.134Z,3.37
2019-05-10T03:24:53.844Z,4.10
2019-05-10T03:27:22.261Z,3.70
2019-05-10T03:29:50.781Z,3.53
2019-05-10T03:32:20.365Z,2.73
2019-05-10T03:34:48.820Z,3.10
2019-05-10T03:37:17.344Z,3.10
2019-05-10T03:39:45.749Z,3.27
2019-05-10T03:42:14.245Z,3.17
2019-05-10T03:44:42.700Z,3.80
2019-05-10T03:47:11.087Z,3.47
2019-05-10T03:49:39.564Z,3.20
2019-05-10T03:52:08.103Z,2.90
2019-05-10T03:54:36.566Z,3.13
2019-05-10T03:57:12.802Z,2.77
2019-05-10T03:59:35.344Z,2.93
2019-05-10T04:02:03.723Z,2.93
2019-05-10T04:04:32.141Z,3.03
2019-05-10T04:07:00.738Z,3.30
2019-05-10T04:09:29.150Z,3.40
2019-05-10T04:11:57.579Z,3.20
2019-05-10T04:14:27.089Z,3.37
2019-05-10T04:16:55.500Z,2.87
2019-05-10T04:19:23.902Z,3.10
2019-05-10T04:21:52.446Z,2.87
2019-05-10T04:24:20.863Z,3.40
2019-05-10T04:26:49.264Z,3.17
2019-05-10T04:29:17.856Z,3.10
2019-05-10T04:31:46.214Z,3.23
2019-05-10T04:34:14.785Z,3.63
2019-05-10T04:36:43.707Z,3.00
2019-05-10T04:39:12.138Z,2.93
2019-05-10T04:41:40.555Z,2.73
2019-05-10T04:44:09.102Z,3.37
2019-05-10T04:46:37.481Z,3.40
2019-05-10T04:49:25.426Z,3.33
2019-05-10T04:51:53.815Z,3.20
2019-05-10T04:54:22.268Z,2.87
2019-05-10T04:56:50.704Z,3.00
2019-05-10T04:59:20.889Z,3.20
2019-05-10T05:01:49.872Z,2.90
2019-05-10T05:04:18.284Z,2.93
2019-05-10T05:06:46.671Z,3.20
2019-05-10T05:09:15.238Z,3.00
2019-05-10T05:11:43.803Z,3.37
2019-05-10T05:14:12.244Z,2.73
2019-05-10T05:16:40.671Z,3.20
2019-05-10T05:19:09.088Z,3.13
2019-05-10T05:21:37.634Z,2.70
2019-05-10T05:24:06.167Z,2.80
2019-05-10T05:26:34.634Z,2.50
2019-05-10T05:29:03.094Z,2.70
2019-05-10T05:31:31.541Z,2.70
2019-05-10T05:34:04.981Z,2.93
2019-05-10T05:36:30.130Z,2.80
2019-05-10T05:38:59.705Z,3.93
2019-05-10T05:41:31.720Z,3.03
2019-05-10T05:43:58.424Z,3.30
2019-05-10T05:46:26.908Z,2.97
2019-05-10T05:48:55.293Z,2.90
2019-05-10T05:51:24.721Z,3.37
2019-05-10T05:53:53.340Z,2.60
2019-05-10T05:56:21.700Z,2.63
2019-05-10T05:58:50.124Z,2.90
2019-05-10T06:01:26.515Z,2.87
2019-05-10T06:03:48.965Z,2.60
2019-05-10T06:06:21.806Z,2.93
2019-05-10T06:08:47.726Z,3.10
2019-05-10T06:11:16.258Z,3.17
2019-05-10T06:13:44.664Z,3.30
2019-05-10T06:16:14.874Z,3.00
2019-05-10T06:18:47.272Z,3.20
2019-05-10T06:21:17.997Z,2.80
2019-05-10T06:24:07.201Z,2.80
2019-05-10T06:26:32.260Z,3.27
2019-05-10T06:29:04.314Z,3.20
2019-05-10T06:31:30.885Z,3.20
2019-05-10T06:33:59.404Z,3.50
2019-05-10T06:36:27.834Z,3.40
2019-05-10T06:38:56.252Z,3.33
2019-05-10T06:41:24.874Z,3.57
2019-05-10T06:43:54.135Z,3.37
2019-05-10T06:46:23.527Z,3.07
2019-05-10T06:48:52.908Z,3.27
2019-05-10T06:51:21.318Z,3.20
2019-05-10T06:53:53.587Z,3.03
2019-05-10T06:56:19.996Z,2.70
2019-05-10T06:58:48.406Z,2.90
2019-05-10T07:01:16.848Z,2.80
2019-05-10T07:03:45.389Z,3.03
2019-05-10T07:06:13.859Z,2.80
2019-05-10T07:08:45.623Z,2.70
2019-05-10T07:11:12.618Z,2.80
2019-05-10T07:13:47.155Z,2.90
2019-05-10T07:16:14.490Z,3.00
2019-05-10T07:18:42.819Z,3.40
2019-05-10T07:21:11.243Z,2.70
2019-05-10T07:23:45.164Z,2.80
2019-05-10T07:26:10.059Z,2.37
2019-05-10T07:28:38.494Z,2.83
2019-05-10T07:31:07.044Z,2.90
2019-05-10T07:33:37.231Z,2.90
2019-05-10T07:36:14.367Z,2.70
2019-05-10T07:38:35.981Z,3.33
2019-05-10T07:41:04.445Z,3.13
2019-05-10T07:43:32.871Z,2.70
2019-05-10T07:46:06.489Z,2.87
2019-05-10T07:48:31.683Z,2.60
2019-05-10T07:51:00.098Z,2.57
2019-05-10T07:53:28.639Z,3.20
2019-05-10T07:55:59.898Z,2.87
2019-05-10T07:58:27.338Z,2.60
2019-05-10T08:00:56.385Z,3.10
2019-05-10T08:03:24.927Z,2.97
2019-05-10T08:05:58.679Z,2.77
2019-05-10T08:08:23.601Z,2.80
2019-05-10T08:10:52.036Z,2.83
2019-05-10T08:13:24.975Z,2.60
2019-05-10T08:15:50.816Z,2.80
2019-05-10T08:18:23.563Z,2.83
2019-05-10T08:20:55.083Z,2.70
2019-05-10T08:23:23.795Z,2.23
2019-05-10T08:25:50.022Z,2.70
2019-05-10T08:28:18.451Z,2.70
2019-05-10T08:30:53.448Z,2.80
2019-05-10T08:33:17.201Z,2.70
2019-05-10T08:35:46.584Z,2.70
2019-05-10T08:38:15.261Z,2.57
2019-05-10T08:40:43.668Z,2.90
2019-05-10T08:43:16.159Z,2.57
2019-05-10T08:45:44.979Z,3.17
2019-05-10T08:48:13.742Z,2.50
2019-05-10T08:50:52.753Z,2.50
2019-05-10T08:53:16.294Z,2.70
2019-05-10T08:55:43.294Z,2.40
2019-05-10T08:58:12.504Z,2.47
2019-05-10T09:00:54.285Z,2.37
2019-05-10T09:03:18.016Z,2.37
2019-05-10T09:05:43.347Z,2.87
2019-05-10T09:08:19.663Z,2.20
2019-05-10T09:10:42.344Z,2.30
2019-05-10T09:13:12.823Z,2.20
2019-05-10T09:15:51.196Z,2.17
2019-05-10T09:18:12.739Z,2.40
2019-05-10T09:20:42.221Z,2.30
2019-05-10T09:23:15.456Z,2.30
2019-05-10T09:25:42.654Z,2.27
2019-05-10T09:28:16.565Z,2.40
2019-05-10T09:30:56.510Z,2.33
2019-05-10T09:33:14.331Z,2.50
2019-05-10T09:35:46.923Z,2.20
2019-05-10T09:38:12.702Z,2.27
2019-05-10T09:40:50.700Z,1.83
2019-05-10T09:43:14.412Z,2.90
2019-05-10T09:45:42.478Z,2.07
2019-05-10T09:48:12.375Z,2.57
2019-05-10T09:50:46.507Z,2.40
2019-05-10T09:53:13.579Z,2.00
2019-05-10T09:55:45.717Z,2.10
2019-05-10T09:58:11.719Z,2.30
2019-05-10T10:00:40.159Z,2.20
2019-05-10T10:03:08.704Z,2.08
2019-05-10T10:05:39.856Z,2.02
2019-05-10T10:08:09.225Z,2.27
2019-05-10T10:10:37.673Z,2.30
2019-05-10T10:13:12.028Z,1.92
2019-05-10T10:15:37.235Z,2.05
2019-05-10T10:18:06.132Z,2.37
2019-05-10T10:20:35.925Z,2.08
2019-05-10T10:23:07.002Z,2.40
2019-05-10T10:25:40.355Z,2.42
2019-05-10T10:28:08.235Z,2.10
2019-05-10T10:30:37.322Z,2.50
2019-05-10T10:33:11.126Z,2.40
2019-05-10T10:35:37.784Z,2.27
2019-05-10T10:38:08.152Z,2.52
2019-05-10T10:40:44.359Z,2.50
2019-05-10T10:43:07.553Z,2.17
2019-05-10T10:45:37.620Z,2.40
2019-05-10T10:48:08.477Z,2.20
2019-05-10T10:50:36.540Z,2.12
2019-05-10T10:53:04.950Z,2.33
2019-05-10T10:55:36.904Z,2.52
2019-05-10T10:58:03.801Z,2.37
2019-05-10T11:00:33.921Z,2.42
2019-05-10T11:03:03.215Z,2.55
2019-05-10T11:05:31.697Z,2.50
2019-05-10T11:08:01.068Z,2.45
2019-05-10T11:10:31.178Z,2.30
2019-05-10T11:13:02.873Z,2.20
2019-05-10T11:15:35.584Z,3.12
2019-05-10T11:18:00.520Z,2.10
2019-05-10T11:20:31.535Z,2.12
2019-05-10T11:22:59.395Z,1.77
2019-05-10T11:25:27.874Z,2.00
2019-05-10T11:27:58.784Z,1.95
2019-05-10T11:30:26.699Z,1.98
2019-05-10T11:32:55.169Z,1.70
2019-05-10T11:35:28.442Z,2.17
2019-05-10T11:37:53.889Z,2.17
2019-05-10T11:40:29.828Z,1.95
2019-05-10T11:42:52.739Z,2.30
2019-05-10T11:45:26.235Z,2.00
2019-05-10T11:47:57.122Z,2.20
2019-05-10T11:50:31.481Z,2.30
2019-05-10T11:52:52.071Z,2.62
2019-05-10T11:55:21.614Z,2.05
2019-05-10T11:59:03.771Z,1.77
2019-05-10T12:00:28.420Z,1.82
2019-05-10T12:03:12.519Z,2.17
2019-05-10T12:05:26.331Z,2.10
2019-05-10T12:07:54.840Z,2.40
2019-05-10T12:10:25.600Z,2.13
2019-05-10T12:13:08.446Z,1.70
2019-05-10T12:15:25.685Z,2.40
2019-05-10T12:17:59.215Z,1.73
2019-05-10T12:22:54.876Z,1.93
2019-05-10T12:25:42.089Z,1.90
2019-05-10T12:26:49.168Z,1.92
2019-05-10T12:27:53.931Z,1.83
2019-05-10T12:30:23.355Z,2.17
2019-05-10T12:32:56.631Z,2.72
2019-05-10T12:35:26.435Z,2.02
2019-05-10T12:37:54.039Z,2.03
2019-05-10T12:40:24.359Z,1.93
2019-05-10T12:42:53.602Z,2.20
2019-05-10T12:45:23.423Z,1.87
2019-05-10T12:47:52.357Z,1.80
2019-05-10T12:50:21.098Z,2.35
2019-05-10T12:53:02.689Z,1.92
2019-05-10T12:55:20.425Z,1.90
2019-05-10T12:57:51.227Z,1.77
2019-05-10T13:00:20.874Z,2.08
2019-05-10T13:02:51.922Z,1.72
2019-05-10T13:05:25.235Z,1.87
2019-05-10T13:07:50.075Z,1.65
2019-05-10T13:10:20.503Z,1.82
2019-05-10T13:12:49.250Z,1.75
2019-05-10T13:15:24.784Z,9.83
2019-05-10T13:17:53.134Z,2.42
2019-05-10T13:20:21.851Z,2.10
2019-05-10T13:22:50.280Z,1.90
2019-05-10T13:25:21.151Z,3.52
2019-05-10T13:27:49.603Z,6.67
2019-05-10T13:30:27.042Z,4.37
2019-05-10T13:32:53.071Z,8.33
2019-05-10T13:35:19.710Z,9.00
2019-05-10T13:37:48.158Z,4.15
2019-05-10T13:40:16.761Z,1.60
2019-05-10T13:42:46.200Z,2.05
2019-05-10T13:45:14.609Z,1.92
2019-05-10T13:47:43.099Z,1.77
2019-05-10T13:50:11.677Z,2.10
2019-05-10T13:52:41.444Z,1.80
2019-05-10T13:55:10.028Z,2.27
2019-05-10T13:57:38.471Z,1.77
2019-05-10T14:00:07.661Z,2.00
2019-05-10T14:02:36.181Z,2.08
2019-05-10T14:05:04.998Z,3.17
2019-05-10T14:07:33.534Z,2.30
2019-05-10T14:10:01.936Z,2.45
2019-05-10T14:12:30.387Z,1.62
2019-05-10T14:15:02.421Z,2.10
2019-05-10T14:17:28.985Z,1.80
2019-05-10T14:19:57.752Z,2.20
2019-05-10T14:22:26.491Z,2.20
2019-05-10T14:24:58.929Z,1.90
2019-05-10T14:27:29.792Z,2.10
2019-05-10T14:29:55.406Z,1.85
2019-05-10T14:32:23.821Z,2.30
2019-05-10T14:34:52.287Z,2.17
2019-05-10T14:37:21.696Z,2.00
2019-05-10T14:39:50.265Z,3.08
2019-05-10T14:42:24.052Z,2.05
2019-05-10T14:44:48.937Z,1.90
2019-05-10T14:47:18.707Z,2.02
2019-05-10T14:49:48.650Z,1.90
2019-05-10T14:52:17.475Z,2.30
2019-05-10T14:54:49.727Z,2.25
2019-05-10T14:57:16.151Z,1.70
2019-05-10T14:59:44.683Z,1.77
2019-05-10T15:02:16.791Z,2.30
2019-05-10T15:04:46.585Z,2.10
2019-05-10T15:07:16.578Z,2.17
2019-05-10T15:09:44.911Z,2.12
2019-05-10T15:12:16.333Z,2.00
2019-05-10T15:14:43.676Z,2.00
2019-05-10T15:17:12.238Z,2.17
2019-05-10T15:19:40.670Z,2.22
2019-05-10T15:22:09.078Z,2.17
2019-05-10T15:24:37.652Z,2.33
2019-05-10T15:27:06.054Z,2.05
2019-05-10T15:29:34.489Z,2.12
2019-05-10T15:32:02.946Z,2.17
2019-05-10T15:34:31.358Z,1.90
2019-05-10T15:37:02.779Z,1.90
2019-05-10T15:39:30.518Z,2.02
2019-05-10T15:42:00.874Z,2.30
2019-05-10T15:44:31.526Z,2.42
2019-05-10T15:46:59.673Z,2.50
2019-05-10T15:49:29.073Z,2.30
2019-05-10T15:52:16.150Z,2.40
2019-05-10T15:54:27.888Z,2.30
2019-05-10T15:56:58.505Z,2.00
2019-05-10T15:59:26.910Z,2.08
2019-05-10T16:01:55.363Z,2.15
2019-05-10T16:04:24.925Z,2.10
2019-05-10T16:06:53.549Z,1.90
2019-05-10T16:09:22.286Z,1.57
2019-05-10T16:11:55.915Z,2.20
2019-05-10T16:14:21.043Z,2.10
2019-05-10T16:16:49.514Z,2.22
2019-05-10T16:19:18.832Z,1.80
2019-05-10T16:21:52.001Z,1.60
2019-05-10T16:24:24.919Z,2.20
2019-05-10T16:26:54.635Z,2.42
2019-05-10T16:29:21.189Z,2.55
2019-05-10T16:31:49.621Z,2.55
2019-05-10T16:34:26.274Z,2.60
2019-05-10T16:36:51.577Z,3.62
2019-05-10T16:39:20.038Z,4.25
2019-05-10T16:41:48.694Z,4.85
2019-05-10T16:44:17.186Z,4.50
2019-05-10T16:46:45.706Z,4.20
2019-05-10T16:49:15.426Z,2.62
2019-05-10T16:51:47.790Z,2.70
2019-05-10T16:54:24.363Z,2.90
2019-05-10T16:56:44.952Z,2.55
2019-05-10T16:59:29.899Z,2.17
2019-05-10T17:02:03.582Z,2.87
2019-05-10T17:04:32.017Z,2.50
2019-05-10T17:06:58.574Z,2.10
2019-05-10T17:09:27.158Z,2.87
2019-05-10T17:11:58.823Z,2.13
2019-05-10T17:14:26.074Z,1.60
2019-05-10T17:16:58.430Z,2.07
2019-05-10T17:19:27.937Z,2.20
2019-05-10T17:21:55.471Z,1.90
2019-05-10T17:24:25.531Z,2.03
2019-05-10T17:26:56.035Z,1.90
2019-05-10T17:29:26.816Z,2.00
2019-05-10T17:31:55.225Z,2.13
2019-05-10T17:34:29.461Z,2.13
2019-05-10T17:36:57.792Z,2.10
2019-05-10T17:39:31.894Z,2.00
2019-05-10T17:41:57.574Z,2.20
2019-05-10T17:44:26.631Z,2.10
2019-05-10T17:46:57.457Z,1.70
2019-05-10T17:49:26.426Z,1.97
2019-05-10T17:51:54.871Z,1.83
2019-05-10T17:54:23.369Z,2.10
2019-05-10T17:56:51.906Z,2.27
2019-05-10T17:59:20.351Z,2.00
2019-05-10T18:01:51.252Z,1.67
2019-05-10T18:04:19.697Z,1.77
2019-05-10T18:06:48.161Z,2.03
2019-05-10T18:09:16.691Z,1.63
2019-05-10T18:11:45.151Z,1.60
2019-05-10T18:14:17.764Z,2.03
2019-05-10T18:16:48.337Z,2.10
2019-05-10T18:19:19.117Z,1.80
2019-05-10T18:21:45.599Z,1.77
2019-05-10T18:24:14.040Z,1.77
2019-05-10T18:26:42.503Z,2.00
2019-05-10T18:29:11.047Z,1.80
2019-05-10T18:31:39.562Z,1.43
2019-05-10T18:34:08.368Z,2.10
2019-05-10T18:36:51.174Z,2.47
2019-05-10T18:39:15.707Z,2.33
2019-05-10T18:41:46.665Z,2.17
2019-05-10T18:44:14.551Z,2.00
2019-05-10T18:46:44.843Z,3.00
2019-05-10T18:49:13.301Z,10.80
2019-05-10T18:51:41.739Z,11.80
2019-05-10T18:54:11.078Z,8.53
2019-05-10T18:56:40.788Z,6.63
2019-05-10T18:59:09.470Z,4.37
2019-05-10T19:01:40.648Z,3.83
2019-05-10T19:04:14.095Z,5.40
2019-05-10T19:06:44.299Z,3.90
2019-05-10T19:09:12.966Z,3.17
2019-05-10T19:11:41.488Z,2.20
2019-05-10T19:14:10.140Z,2.60
2019-05-10T19:16:39.021Z,2.50
2019-05-10T19:19:07.510Z,2.60
2019-05-10T19:21:37.990Z,2.60
2019-05-10T19:24:06.997Z,2.70
2019-05-10T19:26:36.439Z,3.57
2019-05-10T19:29:06.845Z,3.70
2019-05-10T19:31:37.911Z,9.70
2019-05-10T19:34:09.099Z,4.47
2019-05-10T19:36:38.126Z,3.03
2019-05-10T19:39:08.051Z,3.60
2019-05-10T19:41:38.932Z,2.97
2019-05-10T19:44:08.812Z,2.97
2019-05-10T19:46:40.561Z,2.80
2019-05-10T19:49:13.285Z,3.13
2019-05-10T19:51:42.017Z,2.60
2019-05-10T19:54:13.533Z,2.60
2019-05-10T19:56:42.242Z,2.60
2019-05-10T19:59:11.892Z,2.50
2019-05-10T20:01:44.611Z,2.50
2019-05-10T20:04:11.460Z,2.57
2019-05-10T20:09:27.759Z,2.80
2019-05-10T20:11:56.863Z,2.80
2019-05-10T20:14:25.397Z,2.97
2019-05-10T20:16:54.140Z,2.70
2019-05-10T20:19:23.750Z,2.83
2019-05-10T20:21:52.169Z,2.70
2019-05-10T20:24:20.737Z,3.07
2019-05-10T20:26:49.343Z,2.83
2019-05-10T20:29:17.796Z,2.70
2019-05-10T20:31:46.379Z,2.80
2019-05-10T20:34:14.870Z,2.87
2019-05-10T20:36:44.677Z,2.90
2019-05-10T20:39:13.168Z,2.90
2019-05-10T20:41:41.617Z,2.93
2019-05-10T20:44:10.122Z,2.83
2019-05-10T20:46:38.707Z,2.60
2019-05-10T20:49:07.117Z,2.73
2019-05-10T20:51:35.604Z,3.30
2019-05-10T20:54:04.455Z,2.90
2019-05-10T20:56:32.917Z,2.90
2019-05-10T20:59:03.339Z,2.60
2019-05-10T21:01:31.884Z,2.83
2019-05-10T21:04:00.608Z,3.07
2019-05-10T21:06:29.101Z,2.67
2019-05-10T21:08:57.737Z,3.13
2019-05-10T21:11:26.372Z,2.60
2019-05-10T21:13:57.805Z,2.70
2019-05-10T21:16:25.489Z,2.60
2019-05-10T21:18:53.952Z,2.87
2019-05-10T21:21:22.503Z,3.30
2019-05-10T21:23:51.067Z,2.50
2019-05-10T21:26:19.561Z,2.40
2019-05-10T21:28:49.374Z,2.40
2019-05-10T21:31:17.972Z,2.70
2019-05-10T21:33:46.576Z,2.40
2019-05-10T21:36:15.174Z,2.73
2019-05-10T21:38:44.024Z,2.67
2019-05-10T21:41:12.397Z,2.57
2019-05-10T21:43:40.958Z,2.80
2019-05-10T21:46:09.561Z,2.70
2019-05-10T21:48:37.975Z,2.53
2019-05-10T21:51:06.582Z,3.47
2019-05-10T21:53:35.097Z,3.20
2019-05-10T21:56:04.848Z,3.63
2019-05-10T21:58:33.394Z,2.90
2019-05-10T22:01:02.241Z,2.90
2019-05-10T22:03:32.646Z,2.90
2019-05-10T22:06:01.138Z,3.03
2019-05-10T22:08:29.710Z,3.07
2019-05-10T22:10:58.262Z,2.67
2019-05-10T22:13:26.791Z,2.97
2019-05-10T22:15:55.449Z,2.93
2019-05-10T22:18:23.956Z,3.17
2019-05-10T22:20:52.839Z,3.00
2019-05-10T22:23:21.395Z,2.67
2019-05-10T22:25:49.861Z,2.73
2019-05-10T22:28:18.366Z,2.50
2019-05-10T22:30:47.011Z,3.50
2019-05-10T22:33:15.493Z,4.20
2019-05-10T22:35:44.086Z,3.20
2019-05-10T22:38:13.933Z,2.83
2019-05-10T22:40:42.405Z,3.07
2019-05-10T22:43:10.891Z,3.70
2019-05-10T22:45:39.433Z,3.53
2019-05-10T22:48:07.931Z,3.20
2019-05-10T22:50:36.488Z,3.07
2019-05-10T22:53:07.936Z,3.13
2019-05-10T22:55:37.524Z,3.67
2019-05-10T22:58:06.098Z,3.43
2019-05-10T23:00:36.690Z,3.33
2019-05-10T23:03:05.381Z,3.27
2019-05-10T23:05:33.887Z,3.40
2019-05-10T23:08:02.612Z,3.40
2019-05-10T23:10:31.154Z,3.20
2019-05-10T23:12:59.686Z,3.43
2019-05-10T23:15:28.298Z,3.47
2019-05-10T23:17:58.062Z,3.43
2019-05-10T23:20:26.584Z,4.03
2019-05-10T23:22:55.244Z,3.70
2019-05-10T23:25:24.218Z,3.90
2019-05-10T23:27:52.638Z,3.20
2019-05-10T23:30:21.187Z,3.47
2019-05-10T23:32:49.626Z,3.30
2019-05-10T23:35:18.043Z,4.37
2019-05-10T23:37:46.609Z,4.37
2019-05-10T23:40:15.210Z,3.90
2019-05-10T23:42:43.636Z,3.70
2019-05-10T23:45:12.258Z,3.30
2019-05-10T23:47:40.684Z,3.40
2019-05-10T23:50:09.215Z,3.30
2019-05-10T23:52:37.738Z,3.60
2019-05-10T23:55:07.133Z,3.50
2019-05-10T23:57:35.631Z,3.60
